CFG2CG DBBB-EDDF
Flight info
| Callsign | CFG2CG |
|---|---|
| Flight time | N/A |
| Altitude | 33000 |
| Route | BIKAB UA608 VOTEM/N0488F350 UA608 NY UG855 TMS/N0480F370 UZ111 OPRIC/N0476F360 UZ111 IPDAK/N0470F380 UZ111 ELO UR978 CSO UA605 CIRTA DCT ERPIN DCT NOSTA DCT ABESI N851 KUDIS Z170 SONOM T163 EMPAX EMPAX5D |
| Aircraft | A339/H-SADE1E2E3GHIJ3J5M1P2RWXY/LB2D1 |
Departure
| Time | 2026-04-29 19:01 |
|---|---|
| Airport | Cotonou Cadjehoun International Airport (DBBB) |
Arrival
| Time | N/A |
|---|---|
| Airport | Frankfurt Main Airport (EDDF) |
| Time | Latitude | Longitude | Altitude | Speed | Heading |
|---|---|---|---|---|---|
| 2026-04-29 18:52 | 6.36355 | 2.39289 | 27 ft | 0 kts | 233° |
| 2026-04-29 19:00 | 6.36351 | 2.39284 | 27 ft | 9 kts | 232° |
| 2026-04-29 19:00 | 6.36114 | 2.39099 | 28 ft | 76 kts | 220° |
| 2026-04-29 19:00 | 6.35629 | 2.38578 | 36 ft | 129 kts | 238° |
| 2026-04-29 19:00 | 6.35094 | 2.37672 | 42 ft | 168 kts | 216° |
| 2026-04-29 19:01 | 6.34117 | 2.36919 | 67 ft | 187 kts | 192° |
| 2026-04-29 19:01 | 6.32875 | 2.36646 | 359 ft | 186 kts | 161° |
| 2026-04-29 19:01 | 6.31677 | 2.37204 | 478 ft | 197 kts | 139° |
| 2026-04-29 19:01 | 6.30693 | 2.38046 | 1135 ft | 182 kts | 118° |
| 2026-04-29 19:02 | 6.30068 | 2.39229 | 1299 ft | 202 kts | 99° |
| 2026-04-29 19:02 | 6.29862 | 2.40158 | 1554 ft | 204 kts | 82° |
| 2026-04-29 19:02 | 6.30662 | 2.41760 | 2260 ft | 201 kts | 32° |
| 2026-04-29 19:02 | 6.32034 | 2.42092 | 2442 ft | 219 kts | 351° |
| 2026-04-29 19:03 | 6.33609 | 2.41619 | 2276 ft | 256 kts | 326° |
| 2026-04-29 19:03 | 6.35151 | 2.40620 | 2577 ft | 259 kts | 314° |
| 2026-04-29 19:03 | 6.36465 | 2.39430 | 3145 ft | 258 kts | 309° |
| 2026-04-29 19:03 | 6.37545 | 2.37937 | 2998 ft | 270 kts | 290° |
| 2026-04-29 19:04 | 6.38367 | 2.36272 | 3356 ft | 264 kts | 286° |
| 2026-04-29 19:04 | 6.39009 | 2.34528 | 3806 ft | 264 kts | 278° |
| 2026-04-29 19:04 | 6.39654 | 2.32806 | 4366 ft | 260 kts | 302° |
| 2026-04-29 19:04 | 6.41000 | 2.31552 | 4622 ft | 272 kts | 326° |
| 2026-04-29 19:05 | 6.42789 | 2.30930 | 4967 ft | 273 kts | 346° |
| 2026-04-29 19:05 | 6.44701 | 2.30853 | 5264 ft | 279 kts | 359° |
| 2026-04-29 19:05 | 6.46619 | 2.30435 | 5320 ft | 288 kts | 334° |
| 2026-04-29 19:05 | 6.48185 | 2.29192 | 5820 ft | 290 kts | 308° |
| 2026-04-29 19:06 | 6.49118 | 2.27415 | 6362 ft | 290 kts | 291° |
| 2026-04-29 19:06 | 6.50179 | 2.25674 | 6695 ft | 293 kts | 315° |
| 2026-04-29 19:06 | 6.53769 | 2.24070 | 7561 ft | 287 kts | 4° |
| 2026-04-29 19:07 | 6.55698 | 2.24434 | 8040 ft | 281 kts | 22° |
| 2026-04-29 19:07 | 6.56913 | 2.24875 | 8361 ft | 281 kts | 24° |
| 2026-04-29 19:07 | 6.59427 | 2.25649 | 9051 ft | 284 kts | 17° |
| 2026-04-29 19:07 | 6.61378 | 2.26016 | 9562 ft | 287 kts | 13° |
| 2026-04-29 19:08 | 6.63369 | 2.26252 | 10038 ft | 290 kts | 10° |
| 2026-04-29 19:08 | 6.65428 | 2.26431 | 10187 ft | 304 kts | 9° |
| 2026-04-29 19:08 | 6.67587 | 2.26595 | 10316 ft | 319 kts | 8° |
| 2026-04-29 19:08 | 6.69851 | 2.26760 | 10437 ft | 333 kts | 8° |
| 2026-04-29 19:09 | 6.72196 | 2.26931 | 10669 ft | 341 kts | 8° |
| 2026-04-29 19:09 | 6.74572 | 2.27105 | 11087 ft | 343 kts | 8° |
| 2026-04-29 19:09 | 6.76929 | 2.27282 | 11489 ft | 346 kts | 8° |
| 2026-04-29 19:09 | 6.79371 | 2.27468 | 11904 ft | 348 kts | 8° |
| 2026-04-29 19:10 | 6.81762 | 2.27651 | 12312 ft | 351 kts | 8° |
| 2026-04-29 19:10 | 6.84199 | 2.27838 | 12741 ft | 353 kts | 8° |
| 2026-04-29 19:10 | 6.86659 | 2.28028 | 13142 ft | 355 kts | 8° |
| 2026-04-29 19:10 | 6.89136 | 2.28218 | 13512 ft | 359 kts | 8° |
| 2026-04-29 19:11 | 6.91634 | 2.28410 | 13901 ft | 361 kts | 8° |
| 2026-04-29 19:11 | 6.94147 | 2.28604 | 14256 ft | 364 kts | 8° |
| 2026-04-29 19:11 | 6.96676 | 2.28798 | 14621 ft | 366 kts | 8° |
| 2026-04-29 19:11 | 6.99225 | 2.28994 | 14979 ft | 368 kts | 8° |
| 2026-04-29 19:12 | 7.01787 | 2.29191 | 15328 ft | 371 kts | 8° |
| 2026-04-29 19:12 | 7.04364 | 2.29391 | 15685 ft | 373 kts | 7° |
| 2026-04-29 19:12 | 7.06959 | 2.29591 | 16027 ft | 375 kts | 7° |
| 2026-04-29 19:12 | 7.08682 | 2.29724 | 16252 ft | 376 kts | 7° |
| 2026-04-29 19:13 | 7.12194 | 2.29994 | 16712 ft | 379 kts | 7° |
| 2026-04-29 19:13 | 7.14834 | 2.30198 | 17047 ft | 382 kts | 7° |
| 2026-04-29 19:13 | 7.17489 | 2.30402 | 17372 ft | 384 kts | 7° |
| 2026-04-29 19:13 | 7.20160 | 2.30609 | 17692 ft | 386 kts | 7° |
| 2026-04-29 19:14 | 7.22844 | 2.30816 | 18041 ft | 388 kts | 7° |
| 2026-04-29 19:14 | 7.25547 | 2.31024 | 18335 ft | 390 kts | 7° |
| 2026-04-29 19:14 | 7.28261 | 2.31234 | 18629 ft | 392 kts | 7° |
| 2026-04-29 19:14 | 7.30990 | 2.31444 | 18926 ft | 394 kts | 7° |
| 2026-04-29 19:15 | 7.33731 | 2.31655 | 19212 ft | 396 kts | 7° |
| 2026-04-29 19:15 | 7.36486 | 2.31867 | 19503 ft | 398 kts | 7° |
| 2026-04-29 19:15 | 7.39250 | 2.32080 | 19799 ft | 400 kts | 7° |
| 2026-04-29 19:15 | 7.42033 | 2.32295 | 20075 ft | 402 kts | 7° |
| 2026-04-29 19:16 | 7.44828 | 2.32511 | 20396 ft | 404 kts | 7° |
| 2026-04-29 19:16 | 7.47634 | 2.32727 | 20682 ft | 406 kts | 7° |
| 2026-04-29 19:16 | 7.50458 | 2.32945 | 20980 ft | 408 kts | 7° |
| 2026-04-29 19:16 | 7.53293 | 2.33164 | 21276 ft | 410 kts | 7° |
| 2026-04-29 19:17 | 7.56143 | 2.33384 | 21569 ft | 412 kts | 7° |
| 2026-04-29 19:17 | 7.59005 | 2.33605 | 21865 ft | 413 kts | 6° |
| 2026-04-29 19:17 | 7.61840 | 2.33824 | 22181 ft | 415 kts | 6° |
| 2026-04-29 19:17 | 7.64726 | 2.34047 | 22468 ft | 417 kts | 6° |
| 2026-04-29 19:18 | 7.67630 | 2.34271 | 22763 ft | 419 kts | 6° |
| 2026-04-29 19:18 | 7.69600 | 2.34423 | 22957 ft | 421 kts | 6° |
| 2026-04-29 19:18 | 7.73475 | 2.34722 | 23350 ft | 424 kts | 6° |
| 2026-04-29 19:18 | 7.76422 | 2.34950 | 23612 ft | 426 kts | 6° |
| 2026-04-29 19:19 | 7.79378 | 2.35179 | 23879 ft | 427 kts | 6° |
| 2026-04-29 19:19 | 7.82346 | 2.35409 | 24147 ft | 428 kts | 6° |
| 2026-04-29 19:19 | 7.85323 | 2.35639 | 24406 ft | 430 kts | 6° |
| 2026-04-29 19:19 | 7.88322 | 2.35691 | 24661 ft | 432 kts | 360° |
| 2026-04-29 19:20 | 7.91335 | 2.35600 | 24902 ft | 434 kts | 360° |
| 2026-04-29 19:20 | 7.94360 | 2.35520 | 25163 ft | 436 kts | 0° |
| 2026-04-29 19:20 | 7.97398 | 2.35446 | 25406 ft | 438 kts | 360° |
| 2026-04-29 19:20 | 8.00453 | 2.35374 | 25613 ft | 441 kts | 360° |
| 2026-04-29 19:21 | 8.03522 | 2.35300 | 25863 ft | 442 kts | 360° |
| 2026-04-29 19:21 | 8.06602 | 2.35226 | 26126 ft | 443 kts | 360° |
| 2026-04-29 19:21 | 8.09691 | 2.35151 | 26372 ft | 445 kts | 360° |
| 2026-04-29 19:21 | 8.12792 | 2.35075 | 26602 ft | 447 kts | 360° |
| 2026-04-29 19:22 | 8.15883 | 2.35001 | 26878 ft | 447 kts | 359° |
| 2026-04-29 19:22 | 8.19022 | 2.34924 | 27096 ft | 450 kts | 360° |
| 2026-04-29 19:22 | 8.22156 | 2.34848 | 27334 ft | 451 kts | 359° |
| 2026-04-29 19:22 | 8.25294 | 2.34772 | 27590 ft | 452 kts | 359° |
| 2026-04-29 19:23 | 8.28449 | 2.34694 | 27786 ft | 455 kts | 359° |
| 2026-04-29 19:23 | 8.31617 | 2.34618 | 28069 ft | 455 kts | 359° |
| 2026-04-29 19:23 | 8.34786 | 2.34541 | 28288 ft | 457 kts | 359° |
| 2026-04-29 19:23 | 8.37975 | 2.34465 | 28475 ft | 459 kts | 359° |
| 2026-04-29 19:24 | 8.41170 | 2.34387 | 28759 ft | 460 kts | 359° |
| 2026-04-29 19:24 | 8.44376 | 2.34308 | 28955 ft | 462 kts | 359° |
| 2026-04-29 19:24 | 8.47594 | 2.34230 | 29223 ft | 463 kts | 359° |
| 2026-04-29 19:24 | 8.50817 | 2.34151 | 29436 ft | 464 kts | 359° |
| 2026-04-29 19:25 | 8.54053 | 2.34051 | 29673 ft | 466 kts | 358° |
| 2026-04-29 19:25 | 8.57294 | 2.33934 | 29916 ft | 467 kts | 358° |
| 2026-04-29 19:25 | 8.60547 | 2.33814 | 30113 ft | 469 kts | 358° |
| 2026-04-29 19:25 | 8.63809 | 2.33696 | 30354 ft | 469 kts | 358° |
| 2026-04-29 19:26 | 8.67074 | 2.33581 | 30583 ft | 470 kts | 358° |
| 2026-04-29 19:26 | 8.70347 | 2.33466 | 30810 ft | 471 kts | 358° |
| 2026-04-29 19:26 | 8.73629 | 2.33351 | 30993 ft | 473 kts | 358° |
| 2026-04-29 19:26 | 8.76922 | 2.33237 | 31233 ft | 474 kts | 358° |
| 2026-04-29 19:27 | 8.80219 | 2.33123 | 31496 ft | 474 kts | 358° |
| 2026-04-29 19:27 | 8.83523 | 2.33009 | 31712 ft | 475 kts | 358° |
| 2026-04-29 19:27 | 8.86826 | 2.32895 | 31945 ft | 476 kts | 358° |
| 2026-04-29 19:27 | 8.90144 | 2.32781 | 32141 ft | 477 kts | 358° |
| 2026-04-29 19:28 | 8.93416 | 2.32667 | 32404 ft | 476 kts | 358° |
| 2026-04-29 19:28 | 8.96782 | 2.32550 | 32547 ft | 479 kts | 358° |
| 2026-04-29 19:28 | 9.00113 | 2.32435 | 32735 ft | 478 kts | 358° |
| 2026-04-29 19:28 | 9.03438 | 2.32320 | 32914 ft | 479 kts | 358° |
| 2026-04-29 19:29 | 9.06770 | 2.32204 | 33033 ft | 480 kts | 358° |
| 2026-04-29 19:29 | 9.10103 | 2.32089 | 33221 ft | 479 kts | 358° |
| 2026-04-29 19:29 | 9.13440 | 2.31973 | 33263 ft | 481 kts | 358° |
| 2026-04-29 19:29 | 9.16784 | 2.31856 | 33398 ft | 481 kts | 358° |
| 2026-04-29 19:30 | 9.20125 | 2.31740 | 33524 ft | 481 kts | 358° |
| 2026-04-29 19:30 | 9.26817 | 2.31508 | 33757 ft | 480 kts | 358° |
| 2026-04-29 19:31 | 9.33497 | 2.31275 | 34011 ft | 479 kts | 358° |
| 2026-04-29 19:31 | 9.40117 | 2.31045 | 34193 ft | 479 kts | 358° |
| 2026-04-29 19:31 | 9.43486 | 2.30928 | 34332 ft | 478 kts | 358° |
| 2026-04-29 19:32 | 9.46767 | 2.30815 | 34384 ft | 479 kts | 358° |
| 2026-04-29 19:32 | 9.50094 | 2.30710 | 34521 ft | 477 kts | 358° |
| 2026-04-29 19:32 | 9.53416 | 2.30635 | 34616 ft | 478 kts | 359° |
| 2026-04-29 19:33 | 9.60055 | 2.30502 | 34847 ft | 476 kts | 359° |
| 2026-04-29 19:33 | 9.66682 | 2.30358 | 34939 ft | 475 kts | 359° |
| 2026-04-29 19:34 | 9.73312 | 2.30209 | 34946 ft | 477 kts | 359° |
| 2026-04-29 19:34 | 9.78870 | 2.30083 | 34947 ft | 478 kts | 359° |
| 2026-04-29 19:35 | 9.85495 | 2.29933 | 34942 ft | 476 kts | 359° |
| 2026-04-29 19:35 | 9.92141 | 2.29782 | 34942 ft | 477 kts | 359° |
| 2026-04-29 19:36 | 9.98748 | 2.29633 | 34942 ft | 478 kts | 359° |
| 2026-04-29 19:36 | 10.05393 | 2.29482 | 34940 ft | 478 kts | 359° |
| 2026-04-29 19:37 | 10.12027 | 2.29332 | 34945 ft | 478 kts | 359° |
| 2026-04-29 19:37 | 10.18666 | 2.29182 | 34939 ft | 478 kts | 359° |
| 2026-04-29 19:38 | 10.25334 | 2.29032 | 34942 ft | 480 kts | 358° |
| 2026-04-29 19:38 | 10.31984 | 2.28881 | 34939 ft | 478 kts | 358° |
| 2026-04-29 19:39 | 10.38637 | 2.28729 | 34936 ft | 479 kts | 358° |
| 2026-04-29 19:39 | 10.45295 | 2.28578 | 34936 ft | 478 kts | 358° |
| 2026-04-29 19:40 | 10.51952 | 2.28427 | 34938 ft | 478 kts | 358° |
| 2026-04-29 19:40 | 10.58608 | 2.28277 | 34942 ft | 478 kts | 358° |
| 2026-04-29 19:41 | 10.65262 | 2.28125 | 34937 ft | 478 kts | 358° |
| 2026-04-29 19:41 | 10.71912 | 2.27974 | 34935 ft | 478 kts | 358° |
| 2026-04-29 19:42 | 10.78564 | 2.27823 | 34939 ft | 478 kts | 358° |
| 2026-04-29 19:42 | 10.85212 | 2.27672 | 34938 ft | 478 kts | 358° |
| 2026-04-29 19:43 | 10.91861 | 2.27520 | 34935 ft | 478 kts | 358° |
| 2026-04-29 19:43 | 10.98508 | 2.27369 | 34931 ft | 478 kts | 358° |
| 2026-04-29 19:44 | 11.05109 | 2.27207 | 34935 ft | 478 kts | 358° |
| 2026-04-29 19:44 | 11.11798 | 2.27023 | 34936 ft | 478 kts | 358° |
| 2026-04-29 19:45 | 11.18400 | 2.26844 | 34932 ft | 478 kts | 358° |
| 2026-04-29 19:45 | 11.25049 | 2.26665 | 34933 ft | 478 kts | 358° |
| 2026-04-29 19:46 | 11.31699 | 2.26488 | 34917 ft | 479 kts | 358° |
| 2026-04-29 19:46 | 11.38360 | 2.26310 | 34922 ft | 479 kts | 357° |
| 2026-04-29 19:47 | 11.45030 | 2.26130 | 34933 ft | 480 kts | 358° |
| 2026-04-29 19:47 | 11.51714 | 2.25951 | 34929 ft | 480 kts | 357° |
| 2026-04-29 19:48 | 11.58394 | 2.25772 | 34933 ft | 481 kts | 358° |
| 2026-04-29 19:48 | 11.65085 | 2.25594 | 34934 ft | 481 kts | 358° |
| 2026-04-29 19:49 | 11.71795 | 2.25418 | 34933 ft | 485 kts | 357° |
| 2026-04-29 19:49 | 11.78578 | 2.25235 | 35007 ft | 489 kts | 357° |
| 2026-04-29 19:50 | 11.85379 | 2.25055 | 35171 ft | 489 kts | 357° |
| 2026-04-29 19:50 | 11.88782 | 2.24963 | 35285 ft | 489 kts | 357° |
| 2026-04-29 19:50 | 11.92178 | 2.24873 | 35395 ft | 488 kts | 357° |
| 2026-04-29 19:50 | 11.95571 | 2.24782 | 35499 ft | 488 kts | 357° |
| 2026-04-29 19:51 | 11.98955 | 2.24692 | 35624 ft | 487 kts | 357° |
| 2026-04-29 19:51 | 12.02348 | 2.24601 | 35726 ft | 487 kts | 357° |
| 2026-04-29 19:51 | 12.05733 | 2.24511 | 35788 ft | 488 kts | 357° |
| 2026-04-29 19:52 | 12.12539 | 2.24329 | 35900 ft | 489 kts | 357° |
| 2026-04-29 19:52 | 12.15940 | 2.24238 | 36024 ft | 488 kts | 356° |
| 2026-04-29 19:52 | 12.19334 | 2.24148 | 36007 ft | 486 kts | 356° |
| 2026-04-29 19:53 | 12.26101 | 2.23967 | 35930 ft | 489 kts | 356° |
| 2026-04-29 19:53 | 12.32927 | 2.23784 | 35927 ft | 492 kts | 356° |
| 2026-04-29 19:54 | 12.43222 | 2.23509 | 35928 ft | 494 kts | 356° |
| 2026-04-29 19:54 | 12.50086 | 2.23325 | 35925 ft | 493 kts | 356° |
| 2026-04-29 19:55 | 12.56954 | 2.23141 | 35924 ft | 493 kts | 356° |
| 2026-04-29 19:55 | 12.63814 | 2.22957 | 35926 ft | 493 kts | 356° |
| 2026-04-29 19:56 | 12.70678 | 2.22773 | 35925 ft | 493 kts | 356° |
| 2026-04-29 19:56 | 12.77484 | 2.22591 | 35930 ft | 493 kts | 356° |
| 2026-04-29 19:57 | 12.83230 | 2.22437 | 35928 ft | 492 kts | 356° |
| 2026-04-29 19:57 | 12.91181 | 2.22223 | 35930 ft | 492 kts | 356° |
| 2026-04-29 19:58 | 12.98019 | 2.22038 | 35926 ft | 491 kts | 356° |
| 2026-04-29 19:58 | 13.04856 | 2.21854 | 35923 ft | 491 kts | 356° |
| 2026-04-29 19:59 | 13.11688 | 2.21671 | 35921 ft | 491 kts | 356° |
| 2026-04-29 19:59 | 13.18507 | 2.21488 | 35939 ft | 490 kts | 356° |
| 2026-04-29 20:00 | 13.25320 | 2.21304 | 35928 ft | 489 kts | 356° |
| 2026-04-29 20:00 | 13.32122 | 2.21121 | 35925 ft | 489 kts | 356° |
| 2026-04-29 20:01 | 13.38918 | 2.20937 | 35935 ft | 489 kts | 356° |
| 2026-04-29 20:01 | 13.45720 | 2.20962 | 35933 ft | 490 kts | 3° |
| 2026-04-29 20:02 | 13.52446 | 2.22182 | 35932 ft | 493 kts | 13° |
| 2026-04-29 20:02 | 13.57880 | 2.23986 | 35929 ft | 494 kts | 16° |
| 2026-04-29 20:03 | 13.65516 | 2.26556 | 35926 ft | 494 kts | 16° |
| 2026-04-29 20:03 | 13.72054 | 2.28755 | 35925 ft | 494 kts | 16° |
| 2026-04-29 20:04 | 13.78592 | 2.30960 | 35908 ft | 495 kts | 16° |
| 2026-04-29 20:04 | 13.85138 | 2.33171 | 35910 ft | 495 kts | 16° |
| 2026-04-29 20:05 | 13.91673 | 2.35379 | 35919 ft | 494 kts | 16° |
| 2026-04-29 20:05 | 13.98200 | 2.37586 | 35912 ft | 494 kts | 16° |
| 2026-04-29 20:06 | 14.04724 | 2.39793 | 35911 ft | 493 kts | 16° |
| 2026-04-29 20:06 | 14.11248 | 2.42002 | 35908 ft | 493 kts | 16° |
| 2026-04-29 20:07 | 14.17769 | 2.44210 | 35906 ft | 493 kts | 16° |
| 2026-04-29 20:07 | 14.24286 | 2.46421 | 35900 ft | 493 kts | 16° |
| 2026-04-29 20:08 | 14.29705 | 2.48257 | 35904 ft | 493 kts | 16° |
| 2026-04-29 20:08 | 14.37287 | 2.50829 | 35901 ft | 493 kts | 16° |
| 2026-04-29 20:09 | 14.43809 | 2.53043 | 35899 ft | 494 kts | 16° |
| 2026-04-29 20:09 | 14.50334 | 2.55260 | 35899 ft | 494 kts | 16° |
| 2026-04-29 20:10 | 14.56863 | 2.57480 | 35901 ft | 494 kts | 16° |
| 2026-04-29 20:10 | 14.63390 | 2.59700 | 35897 ft | 494 kts | 16° |
| 2026-04-29 20:11 | 14.69915 | 2.61921 | 35895 ft | 494 kts | 16° |
| 2026-04-29 20:11 | 14.76441 | 2.64144 | 35894 ft | 494 kts | 16° |
| 2026-04-29 20:12 | 14.82974 | 2.66370 | 35898 ft | 494 kts | 16° |
| 2026-04-29 20:12 | 14.89482 | 2.68590 | 35901 ft | 494 kts | 16° |
| 2026-04-29 20:13 | 14.94078 | 2.70159 | 35895 ft | 494 kts | 15° |
| 2026-04-29 20:13 | 15.01669 | 2.72750 | 35890 ft | 494 kts | 15° |
| 2026-04-29 20:14 | 15.08208 | 2.74983 | 35952 ft | 495 kts | 15° |
| 2026-04-29 20:14 | 15.14640 | 2.77181 | 35872 ft | 491 kts | 15° |
| 2026-04-29 20:15 | 15.21128 | 2.79403 | 35870 ft | 493 kts | 15° |
| 2026-04-29 20:15 | 15.27669 | 2.81641 | 35876 ft | 496 kts | 15° |
| 2026-04-29 20:16 | 15.34233 | 2.83890 | 35867 ft | 497 kts | 15° |
| 2026-04-29 20:16 | 15.40798 | 2.86139 | 35868 ft | 497 kts | 15° |
| 2026-04-29 20:17 | 15.47363 | 2.88391 | 35865 ft | 497 kts | 15° |
| 2026-04-29 20:17 | 15.53925 | 2.90643 | 35859 ft | 497 kts | 15° |
| 2026-04-29 20:18 | 15.60489 | 2.92897 | 35856 ft | 497 kts | 15° |
| 2026-04-29 20:18 | 15.67054 | 2.95154 | 35839 ft | 498 kts | 15° |
| 2026-04-29 20:19 | 15.73631 | 2.97416 | 35843 ft | 498 kts | 15° |
| 2026-04-29 20:19 | 15.80214 | 2.99681 | 35846 ft | 498 kts | 15° |
| 2026-04-29 20:20 | 15.86752 | 3.01932 | 35845 ft | 499 kts | 15° |
| 2026-04-29 20:20 | 15.93340 | 3.04203 | 35847 ft | 499 kts | 15° |
| 2026-04-29 20:21 | 15.99929 | 3.06476 | 35844 ft | 499 kts | 15° |
| 2026-04-29 20:21 | 16.06520 | 3.08750 | 35847 ft | 499 kts | 15° |
| 2026-04-29 20:22 | 16.12041 | 3.10656 | 35845 ft | 499 kts | 15° |
| 2026-04-29 20:22 | 16.18589 | 3.12919 | 35845 ft | 499 kts | 15° |
| 2026-04-29 20:23 | 16.25177 | 3.15196 | 35845 ft | 499 kts | 15° |
| 2026-04-29 20:23 | 16.31773 | 3.17480 | 35845 ft | 499 kts | 15° |
| 2026-04-29 20:24 | 16.38366 | 3.19767 | 35842 ft | 500 kts | 15° |
| 2026-04-29 20:24 | 16.44971 | 3.22057 | 35843 ft | 500 kts | 15° |
| 2026-04-29 20:25 | 16.51576 | 3.24350 | 35846 ft | 501 kts | 15° |
| 2026-04-29 20:25 | 16.58188 | 3.26647 | 35848 ft | 501 kts | 15° |
| 2026-04-29 20:26 | 16.64800 | 3.28945 | 35853 ft | 501 kts | 15° |
| 2026-04-29 20:26 | 16.71413 | 3.31246 | 35848 ft | 501 kts | 14° |
| 2026-04-29 20:27 | 16.76915 | 3.33161 | 35848 ft | 501 kts | 14° |
| 2026-04-29 20:27 | 16.84654 | 3.35857 | 35849 ft | 502 kts | 14° |
| 2026-04-29 20:28 | 16.91275 | 3.38165 | 35855 ft | 502 kts | 14° |
| 2026-04-29 20:28 | 16.97849 | 3.40458 | 35853 ft | 502 kts | 14° |
| 2026-04-29 20:29 | 17.04514 | 3.42786 | 35844 ft | 502 kts | 14° |
| 2026-04-29 20:29 | 17.11148 | 3.45104 | 35849 ft | 503 kts | 14° |
| 2026-04-29 20:30 | 17.17783 | 3.47424 | 35856 ft | 503 kts | 14° |
| 2026-04-29 20:30 | 17.24374 | 3.49730 | 35857 ft | 503 kts | 14° |
| 2026-04-29 20:31 | 17.31009 | 3.52053 | 35854 ft | 503 kts | 14° |
| 2026-04-29 20:31 | 17.37645 | 3.54381 | 35859 ft | 503 kts | 14° |
| 2026-04-29 20:32 | 17.44287 | 3.56712 | 35851 ft | 503 kts | 14° |
| 2026-04-29 20:32 | 17.50926 | 3.59043 | 35852 ft | 503 kts | 14° |
| 2026-04-29 20:33 | 17.57568 | 3.61378 | 35853 ft | 503 kts | 14° |
| 2026-04-29 20:33 | 17.64211 | 3.63714 | 35854 ft | 503 kts | 14° |
| 2026-04-29 20:34 | 17.70850 | 3.66052 | 35853 ft | 503 kts | 14° |
| 2026-04-29 20:34 | 17.77495 | 3.68393 | 35850 ft | 504 kts | 14° |
| 2026-04-29 20:35 | 17.84139 | 3.70735 | 35853 ft | 504 kts | 14° |
| 2026-04-29 20:35 | 17.90783 | 3.73080 | 35855 ft | 504 kts | 14° |
| 2026-04-29 20:36 | 17.97429 | 3.75426 | 35850 ft | 504 kts | 14° |
| 2026-04-29 20:36 | 18.04070 | 3.77773 | 35853 ft | 504 kts | 14° |
| 2026-04-29 20:37 | 18.10714 | 3.80123 | 35857 ft | 504 kts | 14° |
| 2026-04-29 20:37 | 18.17349 | 3.82473 | 35870 ft | 503 kts | 14° |
| 2026-04-29 20:38 | 18.23973 | 3.84819 | 35865 ft | 502 kts | 14° |
| 2026-04-29 20:38 | 18.30590 | 3.87165 | 35864 ft | 502 kts | 14° |
| 2026-04-29 20:39 | 18.37201 | 3.89510 | 35859 ft | 501 kts | 14° |
| 2026-04-29 20:39 | 18.43807 | 3.91856 | 35859 ft | 501 kts | 14° |
| 2026-04-29 20:40 | 18.50364 | 3.94187 | 35857 ft | 500 kts | 14° |
| 2026-04-29 20:40 | 18.56961 | 3.96534 | 35860 ft | 500 kts | 14° |
| 2026-04-29 20:41 | 18.63557 | 3.98881 | 35859 ft | 500 kts | 14° |
| 2026-04-29 20:41 | 18.70151 | 4.01231 | 35859 ft | 500 kts | 14° |
| 2026-04-29 20:42 | 18.76743 | 4.03582 | 35853 ft | 501 kts | 14° |
| 2026-04-29 20:42 | 18.83343 | 4.05937 | 35859 ft | 501 kts | 14° |
| 2026-04-29 20:43 | 18.89943 | 4.08294 | 35857 ft | 501 kts | 14° |
| 2026-04-29 20:43 | 18.96547 | 4.10654 | 35861 ft | 501 kts | 14° |
| 2026-04-29 20:44 | 19.03154 | 4.13018 | 35865 ft | 501 kts | 14° |
| 2026-04-29 20:44 | 19.09765 | 4.15386 | 35850 ft | 502 kts | 14° |
| 2026-04-29 20:45 | 19.16390 | 4.17739 | 35855 ft | 502 kts | 13° |
| 2026-04-29 20:45 | 19.23043 | 4.19985 | 35879 ft | 502 kts | 12° |
| 2026-04-29 20:46 | 19.29692 | 4.22230 | 35873 ft | 502 kts | 13° |
| 2026-04-29 20:46 | 19.36339 | 4.24490 | 35885 ft | 502 kts | 13° |
| 2026-04-29 20:47 | 19.42984 | 4.26755 | 35877 ft | 502 kts | 12° |
| 2026-04-29 20:47 | 19.49632 | 4.29024 | 35872 ft | 502 kts | 12° |
| 2026-04-29 20:48 | 19.56278 | 4.31293 | 35874 ft | 502 kts | 12° |
| 2026-04-29 20:48 | 19.62927 | 4.33565 | 35876 ft | 502 kts | 12° |
| 2026-04-29 20:49 | 19.69577 | 4.35839 | 35876 ft | 502 kts | 12° |
| 2026-04-29 20:49 | 19.76225 | 4.38116 | 35882 ft | 502 kts | 12° |
| 2026-04-29 20:50 | 19.82832 | 4.40380 | 35879 ft | 502 kts | 12° |
| 2026-04-29 20:50 | 19.89488 | 4.42662 | 35883 ft | 503 kts | 12° |
| 2026-04-29 20:51 | 19.96141 | 4.44944 | 35879 ft | 502 kts | 12° |
| 2026-04-29 20:51 | 20.02791 | 4.47229 | 35881 ft | 502 kts | 12° |
| 2026-04-29 20:52 | 20.09443 | 4.49517 | 35895 ft | 503 kts | 11° |
| 2026-04-29 20:52 | 20.16103 | 4.51810 | 35886 ft | 503 kts | 11° |
| 2026-04-29 20:53 | 20.22760 | 4.54102 | 35884 ft | 503 kts | 11° |
| 2026-04-29 20:53 | 20.29418 | 4.56397 | 35890 ft | 503 kts | 11° |
| 2026-04-29 20:54 | 20.39397 | 4.59841 | 35890 ft | 502 kts | 11° |
| 2026-04-29 20:55 | 20.46050 | 4.62141 | 35883 ft | 503 kts | 11° |
| 2026-04-29 20:55 | 20.52715 | 4.64445 | 35890 ft | 503 kts | 11° |
| 2026-04-29 20:56 | 20.59377 | 4.66751 | 35893 ft | 503 kts | 11° |
| 2026-04-29 20:56 | 20.65992 | 4.69043 | 35891 ft | 504 kts | 11° |
| 2026-04-29 20:57 | 20.72660 | 4.71356 | 35905 ft | 504 kts | 11° |
| 2026-04-29 20:57 | 20.79326 | 4.73671 | 35901 ft | 504 kts | 11° |
| 2026-04-29 20:58 | 20.85997 | 4.75988 | 35913 ft | 504 kts | 11° |
| 2026-04-29 20:58 | 20.92667 | 4.78307 | 35912 ft | 504 kts | 11° |
| 2026-04-29 20:59 | 20.99333 | 4.80627 | 35913 ft | 504 kts | 11° |
| 2026-04-29 20:59 | 21.06006 | 4.82952 | 35922 ft | 504 kts | 11° |
| 2026-04-29 21:00 | 21.12681 | 4.85282 | 35919 ft | 505 kts | 10° |
| 2026-04-29 21:00 | 21.19359 | 4.87612 | 35921 ft | 505 kts | 10° |
| 2026-04-29 21:01 | 21.26034 | 4.89943 | 35930 ft | 505 kts | 10° |
| 2026-04-29 21:01 | 21.32706 | 4.92277 | 35931 ft | 505 kts | 10° |
| 2026-04-29 21:02 | 21.39385 | 4.94616 | 35945 ft | 504 kts | 10° |
| 2026-04-29 21:02 | 21.46055 | 4.96953 | 35948 ft | 504 kts | 10° |
| 2026-04-29 21:03 | 21.52670 | 4.99273 | 35945 ft | 503 kts | 10° |
| 2026-04-29 21:03 | 21.59321 | 5.01608 | 35936 ft | 503 kts | 10° |
| 2026-04-29 21:04 | 21.65976 | 5.03947 | 35932 ft | 503 kts | 10° |
| 2026-04-29 21:04 | 21.72626 | 5.06286 | 35953 ft | 503 kts | 10° |
| 2026-04-29 21:05 | 21.79276 | 5.08628 | 35946 ft | 503 kts | 10° |
| 2026-04-29 21:05 | 21.85921 | 5.10969 | 35952 ft | 503 kts | 10° |
| 2026-04-29 21:06 | 21.92566 | 5.13314 | 35947 ft | 502 kts | 10° |
| 2026-04-29 21:06 | 21.99213 | 5.15661 | 36006 ft | 503 kts | 10° |
| 2026-04-29 21:07 | 22.05860 | 5.18011 | 36152 ft | 503 kts | 10° |
| 2026-04-29 21:07 | 22.11381 | 5.19965 | 36272 ft | 502 kts | 10° |
| 2026-04-29 21:08 | 22.19139 | 5.22713 | 36407 ft | 502 kts | 10° |
| 2026-04-29 21:08 | 22.25770 | 5.25063 | 36547 ft | 501 kts | 10° |
| 2026-04-29 21:09 | 22.32401 | 5.27418 | 36676 ft | 501 kts | 10° |
| 2026-04-29 21:09 | 22.39027 | 5.29772 | 36749 ft | 502 kts | 10° |
| 2026-04-29 21:10 | 22.45675 | 5.32134 | 36844 ft | 503 kts | 10° |
| 2026-04-29 21:10 | 22.51197 | 5.34100 | 37032 ft | 502 kts | 10° |
| 2026-04-29 21:11 | 22.57824 | 5.36461 | 37202 ft | 501 kts | 10° |
| 2026-04-29 21:11 | 22.64450 | 5.38823 | 37356 ft | 501 kts | 10° |
| 2026-04-29 21:12 | 22.71074 | 5.41187 | 37526 ft | 501 kts | 9° |
| 2026-04-29 21:12 | 22.77698 | 5.43549 | 37618 ft | 500 kts | 8° |
| 2026-04-29 21:13 | 22.84393 | 5.45082 | 37692 ft | 485 kts | 357° |
| 2026-04-29 21:13 | 22.91096 | 5.45814 | 37775 ft | 484 kts | 357° |
| 2026-04-29 21:14 | 22.97800 | 5.46582 | 37844 ft | 484 kts | 357° |
| 2026-04-29 21:14 | 23.04501 | 5.47350 | 37926 ft | 484 kts | 356° |
| 2026-04-29 21:15 | 23.11186 | 5.48113 | 38011 ft | 483 kts | 356° |
| 2026-04-29 21:15 | 23.17863 | 5.48872 | 38122 ft | 482 kts | 356° |
| 2026-04-29 21:16 | 23.24538 | 5.49630 | 38124 ft | 482 kts | 356° |
| 2026-04-29 21:16 | 23.31214 | 5.50392 | 38116 ft | 483 kts | 356° |
| 2026-04-29 21:17 | 23.37896 | 5.51156 | 38112 ft | 483 kts | 356° |
| 2026-04-29 21:17 | 23.44574 | 5.51928 | 38108 ft | 481 kts | 356° |
| 2026-04-29 21:18 | 23.51205 | 5.52687 | 38097 ft | 483 kts | 356° |
| 2026-04-29 21:18 | 23.57895 | 5.53447 | 38082 ft | 484 kts | 356° |
| 2026-04-29 21:19 | 23.64597 | 5.54215 | 38092 ft | 485 kts | 356° |
| 2026-04-29 21:19 | 23.71310 | 5.54986 | 38079 ft | 485 kts | 356° |
| 2026-04-29 21:20 | 23.78072 | 5.55763 | 38080 ft | 485 kts | 356° |
| 2026-04-29 21:20 | 23.84747 | 5.56531 | 38085 ft | 485 kts | 356° |
| 2026-04-29 21:21 | 23.91464 | 5.57306 | 38087 ft | 485 kts | 356° |
| 2026-04-29 21:21 | 23.98184 | 5.58081 | 38091 ft | 486 kts | 356° |
| 2026-04-29 21:22 | 24.04903 | 5.58858 | 38075 ft | 485 kts | 356° |
| 2026-04-29 21:22 | 24.11617 | 5.59633 | 38073 ft | 485 kts | 356° |
| 2026-04-29 21:23 | 24.18328 | 5.60411 | 38071 ft | 485 kts | 356° |
| 2026-04-29 21:23 | 24.25032 | 5.61187 | 38075 ft | 484 kts | 356° |
| 2026-04-29 21:24 | 24.31718 | 5.61963 | 38074 ft | 483 kts | 355° |
| 2026-04-29 21:24 | 24.38391 | 5.62736 | 38053 ft | 482 kts | 355° |
| 2026-04-29 21:25 | 24.45070 | 5.63510 | 38045 ft | 483 kts | 355° |
| 2026-04-29 21:25 | 24.51754 | 5.64291 | 38038 ft | 483 kts | 356° |
| 2026-04-29 21:26 | 24.58430 | 5.65065 | 38023 ft | 482 kts | 356° |
| 2026-04-29 21:26 | 24.65102 | 5.65838 | 38030 ft | 483 kts | 355° |
| 2026-04-29 21:27 | 24.71804 | 5.66620 | 38024 ft | 485 kts | 356° |
| 2026-04-29 21:27 | 24.78516 | 5.67406 | 38041 ft | 485 kts | 356° |
| 2026-04-29 21:28 | 24.85232 | 5.68191 | 38044 ft | 486 kts | 356° |
| 2026-04-29 21:28 | 24.91962 | 5.68980 | 38040 ft | 487 kts | 355° |
| 2026-04-29 21:29 | 24.98701 | 5.69770 | 38036 ft | 487 kts | 355° |
| 2026-04-29 21:29 | 25.05443 | 5.70561 | 38036 ft | 487 kts | 355° |
| 2026-04-29 21:30 | 25.12184 | 5.71354 | 38048 ft | 487 kts | 355° |
| 2026-04-29 21:30 | 25.18919 | 5.72146 | 38037 ft | 486 kts | 356° |
| 2026-04-29 21:31 | 25.25650 | 5.72937 | 38038 ft | 486 kts | 355° |
| 2026-04-29 21:31 | 25.32382 | 5.73732 | 38026 ft | 486 kts | 355° |
| 2026-04-29 21:32 | 25.39051 | 5.74518 | 38006 ft | 485 kts | 355° |
| 2026-04-29 21:32 | 25.45760 | 5.75326 | 38008 ft | 485 kts | 355° |
| 2026-04-29 21:33 | 25.52466 | 5.76110 | 38012 ft | 484 kts | 355° |
| 2026-04-29 21:33 | 25.59187 | 5.76898 | 37992 ft | 486 kts | 355° |
| 2026-04-29 21:34 | 25.65917 | 5.77695 | 38005 ft | 487 kts | 355° |
| 2026-04-29 21:34 | 25.72650 | 5.78494 | 38002 ft | 487 kts | 355° |
| 2026-04-29 21:35 | 25.79384 | 5.79294 | 38007 ft | 487 kts | 355° |
| 2026-04-29 21:35 | 25.86120 | 5.80096 | 37999 ft | 488 kts | 355° |
| 2026-04-29 21:36 | 25.92872 | 5.80899 | 38004 ft | 488 kts | 355° |
| 2026-04-29 21:36 | 25.99617 | 5.81701 | 38009 ft | 488 kts | 355° |
| 2026-04-29 21:37 | 26.06380 | 5.82509 | 38009 ft | 488 kts | 355° |
| 2026-04-29 21:37 | 26.13134 | 5.83316 | 38009 ft | 488 kts | 355° |
| 2026-04-29 21:38 | 26.19897 | 5.84125 | 38009 ft | 489 kts | 355° |
| 2026-04-29 21:38 | 26.26663 | 5.84934 | 38009 ft | 489 kts | 355° |
| 2026-04-29 21:39 | 26.33428 | 5.85742 | 38000 ft | 489 kts | 355° |
| 2026-04-29 21:39 | 26.40199 | 5.86555 | 37998 ft | 489 kts | 355° |
| 2026-04-29 21:40 | 26.46964 | 5.87370 | 37990 ft | 490 kts | 355° |
| 2026-04-29 21:40 | 26.53741 | 5.88187 | 37982 ft | 490 kts | 355° |
| 2026-04-29 21:41 | 26.60472 | 5.88995 | 37990 ft | 490 kts | 355° |
| 2026-04-29 21:41 | 26.67298 | 5.89817 | 37986 ft | 490 kts | 355° |
| 2026-04-29 21:42 | 26.74081 | 5.90633 | 37983 ft | 490 kts | 355° |
| 2026-04-29 21:42 | 26.80829 | 5.91448 | 37948 ft | 492 kts | 355° |
| 2026-04-29 21:43 | 26.87634 | 5.92273 | 37964 ft | 492 kts | 355° |
| 2026-04-29 21:43 | 26.94481 | 5.93104 | 37967 ft | 491 kts | 355° |
| 2026-04-29 21:44 | 27.01233 | 5.93923 | 37962 ft | 491 kts | 355° |
| 2026-04-29 21:44 | 27.08030 | 5.94752 | 37947 ft | 492 kts | 355° |
| 2026-04-29 21:45 | 27.14832 | 5.95579 | 37949 ft | 491 kts | 355° |
| 2026-04-29 21:45 | 27.21633 | 5.96403 | 37946 ft | 492 kts | 355° |
| 2026-04-29 21:46 | 27.28433 | 5.97231 | 37950 ft | 492 kts | 355° |
| 2026-04-29 21:46 | 27.35228 | 5.98061 | 37984 ft | 491 kts | 355° |
| 2026-04-29 21:47 | 27.42044 | 5.98891 | 37946 ft | 493 kts | 355° |
| 2026-04-29 21:47 | 27.48865 | 5.99725 | 37941 ft | 493 kts | 355° |
| 2026-04-29 21:48 | 27.55692 | 6.00562 | 37944 ft | 493 kts | 355° |
| 2026-04-29 21:48 | 27.62520 | 6.01400 | 37942 ft | 494 kts | 355° |
| 2026-04-29 21:49 | 27.69350 | 6.02240 | 37944 ft | 494 kts | 355° |
| 2026-04-29 21:49 | 27.76180 | 6.03079 | 37940 ft | 494 kts | 355° |
| 2026-04-29 21:50 | 27.83013 | 6.03920 | 37941 ft | 494 kts | 355° |
| 2026-04-29 21:50 | 27.89844 | 6.04762 | 37940 ft | 494 kts | 355° |
| 2026-04-29 21:51 | 27.96634 | 6.05598 | 37934 ft | 495 kts | 355° |
| 2026-04-29 21:51 | 28.06897 | 6.06867 | 37937 ft | 495 kts | 355° |
| 2026-04-29 21:52 | 28.13739 | 6.07715 | 37939 ft | 495 kts | 355° |
| 2026-04-29 21:52 | 28.20582 | 6.08563 | 37933 ft | 495 kts | 355° |
| 2026-04-29 21:53 | 28.27426 | 6.09412 | 37951 ft | 494 kts | 356° |
| 2026-04-29 21:53 | 28.34262 | 6.10263 | 37938 ft | 494 kts | 356° |
| 2026-04-29 21:54 | 28.41094 | 6.11113 | 37936 ft | 494 kts | 355° |
| 2026-04-29 21:54 | 28.47919 | 6.11962 | 37933 ft | 493 kts | 356° |
| 2026-04-29 21:55 | 28.54744 | 6.12812 | 37937 ft | 493 kts | 356° |
| 2026-04-29 21:55 | 28.61567 | 6.13664 | 37923 ft | 493 kts | 356° |
| 2026-04-29 21:56 | 28.68387 | 6.14520 | 37913 ft | 493 kts | 356° |
| 2026-04-29 21:56 | 28.75201 | 6.15373 | 37927 ft | 493 kts | 356° |
| 2026-04-29 21:57 | 28.82014 | 6.16227 | 37971 ft | 493 kts | 356° |
| 2026-04-29 21:57 | 28.87686 | 6.16938 | 37942 ft | 493 kts | 356° |
| 2026-04-29 21:58 | 28.94500 | 6.17798 | 37934 ft | 492 kts | 356° |
| 2026-04-29 21:58 | 29.01307 | 6.18655 | 37937 ft | 492 kts | 356° |
| 2026-04-29 21:59 | 29.08103 | 6.19512 | 37933 ft | 491 kts | 356° |
| 2026-04-29 21:59 | 29.14898 | 6.20366 | 37962 ft | 491 kts | 357° |
| 2026-04-29 22:00 | 29.21681 | 6.21226 | 37948 ft | 490 kts | 357° |
| 2026-04-29 22:00 | 29.28447 | 6.22086 | 37943 ft | 489 kts | 357° |
| 2026-04-29 22:01 | 29.35207 | 6.22938 | 37945 ft | 488 kts | 357° |
| 2026-04-29 22:01 | 29.41963 | 6.23794 | 37944 ft | 489 kts | 358° |
| 2026-04-29 22:02 | 29.48720 | 6.24654 | 37951 ft | 488 kts | 358° |
| 2026-04-29 22:02 | 29.55470 | 6.25513 | 37948 ft | 488 kts | 358° |
| 2026-04-29 22:03 | 29.62220 | 6.26374 | 37951 ft | 488 kts | 358° |
| 2026-04-29 22:03 | 29.68965 | 6.27234 | 37972 ft | 488 kts | 358° |
| 2026-04-29 22:04 | 29.75718 | 6.28094 | 37956 ft | 488 kts | 358° |
| 2026-04-29 22:04 | 29.82472 | 6.28960 | 37956 ft | 488 kts | 358° |
| 2026-04-29 22:05 | 29.89226 | 6.29826 | 37952 ft | 488 kts | 358° |
| 2026-04-29 22:06 | 29.99355 | 6.31126 | 37967 ft | 488 kts | 359° |
| 2026-04-29 22:06 | 30.06103 | 6.31993 | 37967 ft | 488 kts | 359° |
| 2026-04-29 22:07 | 30.12842 | 6.32861 | 37965 ft | 487 kts | 359° |
| 2026-04-29 22:07 | 30.19576 | 6.33730 | 37970 ft | 487 kts | 359° |
| 2026-04-29 22:08 | 30.26265 | 6.34593 | 37974 ft | 487 kts | 359° |
| 2026-04-29 22:08 | 30.32999 | 6.35463 | 37964 ft | 487 kts | 359° |
| 2026-04-29 22:09 | 30.39729 | 6.36335 | 37969 ft | 487 kts | 359° |
| 2026-04-29 22:09 | 30.46459 | 6.37208 | 37965 ft | 487 kts | 359° |
| 2026-04-29 22:10 | 30.53188 | 6.38081 | 37968 ft | 486 kts | 359° |
| 2026-04-29 22:10 | 30.59914 | 6.38956 | 37968 ft | 486 kts | 359° |
| 2026-04-29 22:11 | 30.66638 | 6.39831 | 37970 ft | 486 kts | 359° |
| 2026-04-29 22:11 | 30.73365 | 6.40708 | 37969 ft | 486 kts | 359° |
| 2026-04-29 22:12 | 30.80084 | 6.41585 | 37993 ft | 486 kts | 359° |
| 2026-04-29 22:12 | 30.86777 | 6.42458 | 37980 ft | 487 kts | 359° |
| 2026-04-29 22:13 | 30.93512 | 6.43341 | 37979 ft | 487 kts | 359° |
| 2026-04-29 22:13 | 31.00248 | 6.44225 | 37977 ft | 487 kts | 359° |
| 2026-04-29 22:14 | 31.06986 | 6.45110 | 37970 ft | 487 kts | 359° |
| 2026-04-29 22:14 | 31.13728 | 6.45996 | 37971 ft | 488 kts | 359° |
| 2026-04-29 22:15 | 31.20473 | 6.46885 | 37974 ft | 487 kts | 359° |
| 2026-04-29 22:15 | 31.27212 | 6.47773 | 37971 ft | 487 kts | 359° |
| 2026-04-29 22:16 | 31.33951 | 6.48664 | 37965 ft | 487 kts | 359° |
| 2026-04-29 22:16 | 31.40692 | 6.49555 | 37970 ft | 488 kts | 359° |
| 2026-04-29 22:17 | 31.47431 | 6.50449 | 37963 ft | 487 kts | 359° |
| 2026-04-29 22:17 | 31.54168 | 6.51343 | 37962 ft | 487 kts | 359° |
| 2026-04-29 22:18 | 31.60903 | 6.52238 | 37960 ft | 487 kts | 359° |
| 2026-04-29 22:18 | 31.67643 | 6.53134 | 37957 ft | 488 kts | 359° |
| 2026-04-29 22:19 | 31.74390 | 6.54034 | 37953 ft | 488 kts | 359° |
| 2026-04-29 22:19 | 31.81140 | 6.54934 | 37951 ft | 488 kts | 359° |
| 2026-04-29 22:20 | 31.87846 | 6.55830 | 37956 ft | 488 kts | 359° |
| 2026-04-29 22:20 | 31.94592 | 6.56733 | 37967 ft | 488 kts | 359° |
| 2026-04-29 22:21 | 32.01334 | 6.57637 | 37961 ft | 487 kts | 359° |
| 2026-04-29 22:21 | 32.08069 | 6.58541 | 37956 ft | 487 kts | 359° |
| 2026-04-29 22:22 | 32.14796 | 6.59447 | 37933 ft | 486 kts | 359° |
| 2026-04-29 22:22 | 32.21524 | 6.60353 | 37941 ft | 487 kts | 359° |
| 2026-04-29 22:23 | 32.28259 | 6.61260 | 37939 ft | 487 kts | 359° |
| 2026-04-29 22:23 | 32.34994 | 6.62169 | 37937 ft | 487 kts | 359° |
| 2026-04-29 22:24 | 32.41732 | 6.63081 | 37935 ft | 487 kts | 359° |
| 2026-04-29 22:24 | 32.48477 | 6.63993 | 37938 ft | 488 kts | 360° |
| 2026-04-29 22:25 | 32.55227 | 6.64909 | 37933 ft | 488 kts | 360° |
| 2026-04-29 22:25 | 32.61983 | 6.65827 | 37932 ft | 488 kts | 360° |
| 2026-04-29 22:26 | 32.68737 | 6.66746 | 37927 ft | 488 kts | 360° |
| 2026-04-29 22:26 | 32.75486 | 6.67665 | 37951 ft | 488 kts | 0° |
| 2026-04-29 22:27 | 32.82177 | 6.68579 | 37946 ft | 487 kts | 0° |
| 2026-04-29 22:27 | 32.88901 | 6.69498 | 37945 ft | 486 kts | 360° |
| 2026-04-29 22:28 | 32.95618 | 6.70418 | 37944 ft | 486 kts | 360° |
| 2026-04-29 22:28 | 33.02324 | 6.71337 | 37960 ft | 484 kts | 0° |
| 2026-04-29 22:29 | 33.09006 | 6.72255 | 37950 ft | 483 kts | 0° |
| 2026-04-29 22:29 | 33.15671 | 6.73171 | 37938 ft | 482 kts | 0° |
| 2026-04-29 22:30 | 33.22329 | 6.74088 | 37936 ft | 481 kts | 0° |
| 2026-04-29 22:30 | 33.28974 | 6.75004 | 37943 ft | 481 kts | 0° |
| 2026-04-29 22:31 | 33.35618 | 6.75922 | 37931 ft | 480 kts | 0° |
| 2026-04-29 22:31 | 33.42261 | 6.76840 | 37930 ft | 480 kts | 0° |
| 2026-04-29 22:32 | 33.48900 | 6.77753 | 37922 ft | 479 kts | 359° |
| 2026-04-29 22:32 | 33.55496 | 6.77790 | 37910 ft | 472 kts | 350° |
| 2026-04-29 22:33 | 33.62069 | 6.77376 | 37922 ft | 473 kts | 351° |
| 2026-04-29 22:33 | 33.68651 | 6.76989 | 37928 ft | 474 kts | 351° |
| 2026-04-29 22:34 | 33.75243 | 6.76592 | 37925 ft | 474 kts | 351° |
| 2026-04-29 22:34 | 33.81842 | 6.76192 | 37935 ft | 475 kts | 351° |
| 2026-04-29 22:35 | 33.88446 | 6.75788 | 37939 ft | 475 kts | 351° |
| 2026-04-29 22:35 | 33.95050 | 6.75385 | 37938 ft | 475 kts | 351° |
| 2026-04-29 22:36 | 34.01610 | 6.74984 | 37938 ft | 475 kts | 351° |
| 2026-04-29 22:36 | 34.08211 | 6.74579 | 37940 ft | 475 kts | 351° |
| 2026-04-29 22:37 | 34.14816 | 6.74173 | 37933 ft | 475 kts | 351° |
| 2026-04-29 22:37 | 34.21420 | 6.73767 | 37936 ft | 475 kts | 351° |
| 2026-04-29 22:38 | 34.28022 | 6.73361 | 37937 ft | 475 kts | 351° |
| 2026-04-29 22:38 | 34.34618 | 6.72955 | 37952 ft | 474 kts | 350° |
| 2026-04-29 22:39 | 34.41197 | 6.72548 | 37943 ft | 473 kts | 350° |
| 2026-04-29 22:39 | 34.47773 | 6.72141 | 37946 ft | 473 kts | 350° |
| 2026-04-29 22:40 | 34.54340 | 6.71735 | 37943 ft | 472 kts | 350° |
| 2026-04-29 22:40 | 34.60907 | 6.71327 | 37950 ft | 473 kts | 350° |
| 2026-04-29 22:41 | 34.67427 | 6.70922 | 37968 ft | 472 kts | 350° |
| 2026-04-29 22:41 | 34.73994 | 6.70513 | 37968 ft | 473 kts | 350° |
| 2026-04-29 22:42 | 34.80563 | 6.70103 | 37987 ft | 473 kts | 350° |
| 2026-04-29 22:42 | 34.87133 | 6.69699 | 38015 ft | 473 kts | 350° |
| 2026-04-29 22:43 | 34.93699 | 6.69299 | 38014 ft | 473 kts | 350° |
| 2026-04-29 22:43 | 35.00269 | 6.68896 | 38027 ft | 473 kts | 350° |
| 2026-04-29 22:44 | 35.06840 | 6.68492 | 38086 ft | 472 kts | 350° |
| 2026-04-29 22:44 | 35.13390 | 6.68090 | 38068 ft | 470 kts | 350° |
| 2026-04-29 22:45 | 35.19915 | 6.67685 | 38066 ft | 469 kts | 350° |
| 2026-04-29 22:45 | 35.26423 | 6.67285 | 38051 ft | 468 kts | 350° |
| 2026-04-29 22:46 | 35.32901 | 6.66884 | 38079 ft | 466 kts | 350° |
| 2026-04-29 22:46 | 35.39390 | 6.66481 | 38066 ft | 465 kts | 350° |
| 2026-04-29 22:47 | 35.45855 | 6.66081 | 38042 ft | 464 kts | 350° |
| 2026-04-29 22:47 | 35.51214 | 6.65748 | 38023 ft | 464 kts | 349° |
| 2026-04-29 22:48 | 35.57651 | 6.65347 | 38036 ft | 463 kts | 349° |
| 2026-04-29 22:48 | 35.64097 | 6.64943 | 38009 ft | 464 kts | 349° |
| 2026-04-29 22:49 | 35.70541 | 6.64541 | 38008 ft | 464 kts | 349° |
| 2026-04-29 22:49 | 35.76983 | 6.64137 | 38008 ft | 464 kts | 349° |
| 2026-04-29 22:50 | 35.83427 | 6.63733 | 38004 ft | 464 kts | 349° |
| 2026-04-29 22:50 | 35.89871 | 6.63327 | 38002 ft | 464 kts | 349° |
| 2026-04-29 22:51 | 35.96313 | 6.62922 | 38018 ft | 464 kts | 349° |
| 2026-04-29 22:51 | 36.05991 | 6.62311 | 38054 ft | 464 kts | 349° |
| 2026-04-29 22:52 | 36.12452 | 6.61905 | 38072 ft | 465 kts | 349° |
| 2026-04-29 22:52 | 36.18918 | 6.61495 | 38098 ft | 465 kts | 349° |
| 2026-04-29 22:53 | 36.25345 | 6.61087 | 38099 ft | 465 kts | 349° |
| 2026-04-29 22:53 | 36.31860 | 6.61208 | 38107 ft | 474 kts | 359° |
| 2026-04-29 22:54 | 36.38422 | 6.62230 | 38115 ft | 475 kts | 359° |
| 2026-04-29 22:54 | 36.44980 | 6.63213 | 38082 ft | 474 kts | 359° |
| 2026-04-29 22:55 | 36.51524 | 6.64201 | 38036 ft | 474 kts | 359° |
| 2026-04-29 22:55 | 36.58065 | 6.65197 | 38000 ft | 473 kts | 359° |
| 2026-04-29 22:56 | 36.64597 | 6.66198 | 37979 ft | 473 kts | 359° |
| 2026-04-29 22:56 | 36.71116 | 6.67195 | 37972 ft | 472 kts | 359° |
| 2026-04-29 22:57 | 36.77631 | 6.68195 | 37970 ft | 472 kts | 359° |
| 2026-04-29 22:57 | 36.84140 | 6.69191 | 37987 ft | 471 kts | 359° |
| 2026-04-29 22:58 | 36.90642 | 6.70190 | 37979 ft | 470 kts | 359° |
| 2026-04-29 22:58 | 36.97139 | 6.71192 | 37976 ft | 470 kts | 359° |
| 2026-04-29 22:59 | 37.03617 | 6.72191 | 37974 ft | 469 kts | 359° |
| 2026-04-29 22:59 | 37.10108 | 6.73193 | 37964 ft | 469 kts | 359° |
| 2026-04-29 23:00 | 37.16588 | 6.74196 | 37965 ft | 469 kts | 359° |
| 2026-04-29 23:00 | 37.23064 | 6.75200 | 37978 ft | 469 kts | 359° |
| 2026-04-29 23:01 | 37.28685 | 6.76073 | 37992 ft | 469 kts | 359° |
| 2026-04-29 23:01 | 37.35181 | 6.77082 | 37964 ft | 470 kts | 359° |
| 2026-04-29 23:02 | 37.41680 | 6.78095 | 37963 ft | 471 kts | 359° |
| 2026-04-29 23:02 | 37.48183 | 6.79111 | 37965 ft | 471 kts | 359° |
| 2026-04-29 23:03 | 37.54688 | 6.80127 | 37974 ft | 471 kts | 360° |
| 2026-04-29 23:03 | 37.61195 | 6.81147 | 37975 ft | 471 kts | 360° |
| 2026-04-29 23:04 | 37.67692 | 6.82167 | 37975 ft | 471 kts | 360° |
| 2026-04-29 23:04 | 37.74192 | 6.83189 | 37974 ft | 470 kts | 360° |
| 2026-04-29 23:05 | 37.80687 | 6.84211 | 37974 ft | 471 kts | 0° |
| 2026-04-29 23:05 | 37.87186 | 6.85237 | 37968 ft | 470 kts | 0° |
| 2026-04-29 23:06 | 37.93633 | 6.86257 | 37965 ft | 470 kts | 0° |
| 2026-04-29 23:06 | 38.00119 | 6.87283 | 37984 ft | 470 kts | 0° |
| 2026-04-29 23:07 | 38.06607 | 6.88311 | 37969 ft | 470 kts | 0° |
| 2026-04-29 23:07 | 38.13092 | 6.89343 | 37968 ft | 470 kts | 0° |
| 2026-04-29 23:08 | 38.19575 | 6.90375 | 37967 ft | 469 kts | 0° |
| 2026-04-29 23:08 | 38.26057 | 6.91409 | 37966 ft | 469 kts | 0° |
| 2026-04-29 23:09 | 38.32538 | 6.92444 | 37969 ft | 469 kts | 0° |
| 2026-04-29 23:09 | 38.39020 | 6.93481 | 37969 ft | 469 kts | 0° |
| 2026-04-29 23:10 | 38.45501 | 6.94520 | 37998 ft | 469 kts | 1° |
| 2026-04-29 23:10 | 38.51985 | 6.95559 | 37986 ft | 469 kts | 1° |
| 2026-04-29 23:11 | 38.58465 | 6.96602 | 37984 ft | 469 kts | 1° |
| 2026-04-29 23:11 | 38.64947 | 6.97647 | 37971 ft | 469 kts | 1° |
| 2026-04-29 23:12 | 38.71430 | 6.98693 | 37982 ft | 469 kts | 1° |
| 2026-04-29 23:12 | 38.77902 | 6.99740 | 37983 ft | 469 kts | 1° |
| 2026-04-29 23:13 | 38.84373 | 7.00789 | 37990 ft | 469 kts | 1° |
| 2026-04-29 23:13 | 38.90841 | 7.01840 | 37979 ft | 468 kts | 1° |
| 2026-04-29 23:14 | 38.97307 | 7.02890 | 37989 ft | 468 kts | 1° |
| 2026-04-29 23:14 | 39.03717 | 7.04003 | 37997 ft | 469 kts | 3° |
| 2026-04-29 23:15 | 39.10155 | 7.05361 | 37988 ft | 469 kts | 4° |
| 2026-04-29 23:15 | 39.16585 | 7.06704 | 37987 ft | 468 kts | 3° |
| 2026-04-29 23:16 | 39.23020 | 7.08025 | 37992 ft | 468 kts | 3° |
| 2026-04-29 23:16 | 39.29454 | 7.09342 | 37991 ft | 468 kts | 3° |
| 2026-04-29 23:17 | 39.35900 | 7.10665 | 37991 ft | 468 kts | 3° |
| 2026-04-29 23:17 | 39.42324 | 7.11984 | 37999 ft | 467 kts | 4° |
| 2026-04-29 23:18 | 39.48694 | 7.13297 | 37997 ft | 466 kts | 4° |
| 2026-04-29 23:18 | 39.55104 | 7.14620 | 38001 ft | 466 kts | 4° |
| 2026-04-29 23:19 | 39.61510 | 7.15943 | 38002 ft | 466 kts | 4° |
| 2026-04-29 23:19 | 39.67907 | 7.17268 | 38004 ft | 466 kts | 4° |
| 2026-04-29 23:20 | 39.74306 | 7.18597 | 37997 ft | 465 kts | 4° |
| 2026-04-29 23:20 | 39.80701 | 7.19926 | 38011 ft | 465 kts | 4° |
| 2026-04-29 23:21 | 39.87096 | 7.21256 | 38000 ft | 465 kts | 4° |
| 2026-04-29 23:21 | 39.93490 | 7.22591 | 38006 ft | 465 kts | 4° |
| 2026-04-29 23:22 | 39.99885 | 7.23928 | 38009 ft | 465 kts | 4° |
| 2026-04-29 23:22 | 40.06279 | 7.25266 | 38010 ft | 465 kts | 5° |
| 2026-04-29 23:23 | 40.12675 | 7.26609 | 38006 ft | 466 kts | 5° |
| 2026-04-29 23:23 | 40.19071 | 7.27955 | 38007 ft | 466 kts | 5° |
| 2026-04-29 23:24 | 40.25467 | 7.29302 | 38028 ft | 466 kts | 5° |
| 2026-04-29 23:24 | 40.31870 | 7.30649 | 38010 ft | 466 kts | 5° |
| 2026-04-29 23:25 | 40.38270 | 7.32006 | 38013 ft | 466 kts | 5° |
| 2026-04-29 23:25 | 40.44672 | 7.33363 | 38013 ft | 466 kts | 5° |
| 2026-04-29 23:26 | 40.51071 | 7.34722 | 38013 ft | 466 kts | 5° |
| 2026-04-29 23:26 | 40.57471 | 7.36083 | 38014 ft | 466 kts | 5° |
| 2026-04-29 23:27 | 40.63870 | 7.37447 | 38016 ft | 466 kts | 5° |
| 2026-04-29 23:27 | 40.70269 | 7.38812 | 38021 ft | 466 kts | 6° |
| 2026-04-29 23:28 | 40.76671 | 7.40182 | 38020 ft | 466 kts | 6° |
| 2026-04-29 23:28 | 40.83070 | 7.41555 | 38019 ft | 466 kts | 6° |
| 2026-04-29 23:29 | 40.89467 | 7.42929 | 38037 ft | 466 kts | 6° |
| 2026-04-29 23:29 | 40.95823 | 7.44295 | 38029 ft | 466 kts | 6° |
| 2026-04-29 23:30 | 41.02216 | 7.45675 | 38029 ft | 466 kts | 6° |
| 2026-04-29 23:30 | 41.08611 | 7.47058 | 38028 ft | 465 kts | 6° |
| 2026-04-29 23:31 | 41.15002 | 7.48440 | 38032 ft | 465 kts | 6° |
| 2026-04-29 23:31 | 41.21391 | 7.49826 | 38031 ft | 465 kts | 6° |
| 2026-04-29 23:32 | 41.27778 | 7.51215 | 38035 ft | 465 kts | 6° |
| 2026-04-29 23:32 | 41.34160 | 7.52605 | 38037 ft | 465 kts | 6° |
| 2026-04-29 23:33 | 41.40539 | 7.53997 | 38044 ft | 464 kts | 6° |
| 2026-04-29 23:33 | 41.46908 | 7.55390 | 38040 ft | 464 kts | 6° |
| 2026-04-29 23:34 | 41.53283 | 7.56786 | 38046 ft | 464 kts | 6° |
| 2026-04-29 23:34 | 41.59666 | 7.57862 | 38038 ft | 461 kts | 360° |
| 2026-04-29 23:35 | 41.66076 | 7.58322 | 38040 ft | 461 kts | 1° |
| 2026-04-29 23:35 | 41.71403 | 7.58740 | 38036 ft | 462 kts | 1° |
| 2026-04-29 23:36 | 41.78911 | 7.59324 | 38038 ft | 463 kts | 0° |
| 2026-04-29 23:36 | 41.84253 | 7.59738 | 38037 ft | 463 kts | 0° |
| 2026-04-29 23:37 | 41.90681 | 7.60235 | 38042 ft | 463 kts | 0° |
| 2026-04-29 23:37 | 41.97116 | 7.60733 | 38034 ft | 464 kts | 0° |
| 2026-04-29 23:38 | 42.03559 | 7.61234 | 38042 ft | 464 kts | 0° |
| 2026-04-29 23:38 | 42.10010 | 7.61737 | 38043 ft | 464 kts | 0° |
| 2026-04-29 23:39 | 42.16463 | 7.62241 | 38048 ft | 465 kts | 0° |
| 2026-04-29 23:39 | 42.22924 | 7.62747 | 38044 ft | 465 kts | 0° |
| 2026-04-29 23:40 | 42.29390 | 7.63253 | 38048 ft | 465 kts | 0° |
| 2026-04-29 23:40 | 42.35858 | 7.63761 | 38049 ft | 466 kts | 0° |
| 2026-04-29 23:41 | 42.42288 | 7.64268 | 38048 ft | 466 kts | 0° |
| 2026-04-29 23:41 | 42.48768 | 7.64779 | 38050 ft | 466 kts | 0° |
| 2026-04-29 23:42 | 42.55243 | 7.65290 | 38051 ft | 466 kts | 0° |
| 2026-04-29 23:42 | 42.61723 | 7.65803 | 38056 ft | 466 kts | 0° |
| 2026-04-29 23:43 | 42.68200 | 7.66317 | 38054 ft | 466 kts | 0° |
| 2026-04-29 23:43 | 42.74674 | 7.66832 | 38053 ft | 466 kts | 0° |
| 2026-04-29 23:44 | 42.81149 | 7.67348 | 38057 ft | 466 kts | 0° |
| 2026-04-29 23:44 | 42.87622 | 7.67865 | 38061 ft | 466 kts | 0° |
| 2026-04-29 23:45 | 42.94093 | 7.68383 | 38063 ft | 466 kts | 0° |
| 2026-04-29 23:45 | 43.00561 | 7.68902 | 38066 ft | 465 kts | 0° |
| 2026-04-29 23:46 | 43.07024 | 7.69421 | 38064 ft | 465 kts | 0° |
| 2026-04-29 23:46 | 43.13482 | 7.69940 | 38061 ft | 465 kts | 0° |
| 2026-04-29 23:47 | 43.19935 | 7.70462 | 38073 ft | 464 kts | 0° |
| 2026-04-29 23:47 | 43.26386 | 7.70983 | 38072 ft | 464 kts | 0° |
| 2026-04-29 23:48 | 43.32785 | 7.71502 | 38068 ft | 464 kts | 0° |
| 2026-04-29 23:48 | 43.39222 | 7.72024 | 38067 ft | 463 kts | 0° |
| 2026-04-29 23:49 | 43.45656 | 7.72548 | 38070 ft | 463 kts | 0° |
| 2026-04-29 23:49 | 43.52087 | 7.73072 | 38072 ft | 463 kts | 0° |
| 2026-04-29 23:50 | 43.58518 | 7.73597 | 38082 ft | 463 kts | 0° |
| 2026-04-29 23:51 | 43.68150 | 7.74386 | 38075 ft | 462 kts | 0° |
| 2026-04-29 23:51 | 43.74565 | 7.74913 | 38086 ft | 462 kts | 0° |
| 2026-04-29 23:52 | 43.80956 | 7.75858 | 38099 ft | 464 kts | 8° |
| 2026-04-29 23:52 | 43.86439 | 7.77927 | 38097 ft | 468 kts | 16° |
| 2026-04-29 23:53 | 43.92459 | 7.81120 | 38106 ft | 468 kts | 17° |
| 2026-04-29 23:53 | 43.95505 | 7.82717 | 37999 ft | 466 kts | 17° |
| 2026-04-29 23:53 | 43.98525 | 7.84303 | 37797 ft | 462 kts | 17° |
| 2026-04-29 23:53 | 44.01526 | 7.85884 | 37645 ft | 462 kts | 17° |
| 2026-04-29 23:54 | 44.04538 | 7.87477 | 37667 ft | 464 kts | 17° |
| 2026-04-29 23:54 | 44.10577 | 7.90685 | 37743 ft | 465 kts | 17° |
| 2026-04-29 23:55 | 44.16635 | 7.93909 | 37822 ft | 466 kts | 17° |
| 2026-04-29 23:55 | 44.22686 | 7.97140 | 37899 ft | 466 kts | 18° |
| 2026-04-29 23:56 | 44.28730 | 8.00375 | 37919 ft | 465 kts | 18° |
| 2026-04-29 23:56 | 44.34765 | 8.03611 | 37953 ft | 464 kts | 18° |
| 2026-04-29 23:57 | 44.40784 | 8.06845 | 38015 ft | 463 kts | 18° |
| 2026-04-29 23:57 | 44.46779 | 8.10074 | 38069 ft | 462 kts | 18° |
| 2026-04-29 23:58 | 44.52769 | 8.13308 | 38123 ft | 461 kts | 18° |
| 2026-04-29 23:58 | 44.58739 | 8.16536 | 38123 ft | 459 kts | 18° |
| 2026-04-29 23:59 | 44.64700 | 8.19768 | 38117 ft | 460 kts | 18° |
| 2026-04-29 23:59 | 44.70676 | 8.23015 | 38133 ft | 461 kts | 18° |
| 2026-04-30 00:00 | 44.76652 | 8.26271 | 38123 ft | 460 kts | 18° |
| 2026-04-30 00:00 | 44.82613 | 8.29523 | 38124 ft | 459 kts | 18° |
| 2026-04-30 00:01 | 44.88567 | 8.32780 | 38121 ft | 459 kts | 18° |
| 2026-04-30 00:01 | 44.94482 | 8.36025 | 38114 ft | 459 kts | 17° |
| 2026-04-30 00:02 | 45.00441 | 8.39297 | 38086 ft | 459 kts | 17° |
| 2026-04-30 00:02 | 45.06398 | 8.42578 | 38085 ft | 459 kts | 17° |
| 2026-04-30 00:03 | 45.12349 | 8.45864 | 38089 ft | 459 kts | 17° |
| 2026-04-30 00:03 | 45.18297 | 8.49172 | 38110 ft | 459 kts | 17° |
| 2026-04-30 00:04 | 45.24227 | 8.52499 | 38173 ft | 458 kts | 17° |
| 2026-04-30 00:04 | 45.30164 | 8.55806 | 38192 ft | 459 kts | 17° |
| 2026-04-30 00:05 | 45.36107 | 8.59112 | 38187 ft | 458 kts | 17° |
| 2026-04-30 00:05 | 45.42045 | 8.62420 | 38171 ft | 458 kts | 17° |
| 2026-04-30 00:06 | 45.47922 | 8.65710 | 38179 ft | 451 kts | 16° |
| 2026-04-30 00:06 | 45.53783 | 8.68987 | 38182 ft | 454 kts | 16° |
| 2026-04-30 00:07 | 45.59673 | 8.72290 | 38180 ft | 455 kts | 17° |
| 2026-04-30 00:07 | 45.65577 | 8.75612 | 38185 ft | 457 kts | 16° |
| 2026-04-30 00:08 | 45.71494 | 8.78949 | 38175 ft | 458 kts | 17° |
| 2026-04-30 00:08 | 45.77423 | 8.82302 | 38181 ft | 458 kts | 17° |
| 2026-04-30 00:09 | 45.83354 | 8.85661 | 38199 ft | 459 kts | 17° |
| 2026-04-30 00:09 | 45.89304 | 8.89039 | 38182 ft | 461 kts | 17° |
| 2026-04-30 00:10 | 45.95267 | 8.92434 | 38187 ft | 461 kts | 17° |
| 2026-04-30 00:10 | 46.01244 | 8.95845 | 38186 ft | 462 kts | 17° |
| 2026-04-30 00:11 | 46.07187 | 8.99241 | 38184 ft | 463 kts | 17° |
| 2026-04-30 00:11 | 46.13271 | 9.02369 | 38183 ft | 459 kts | 9° |
| 2026-04-30 00:12 | 46.19537 | 9.03553 | 38179 ft | 452 kts | 357° |
| 2026-04-30 00:12 | 46.25744 | 9.02945 | 38180 ft | 450 kts | 352° |
| 2026-04-30 00:13 | 46.31982 | 9.02122 | 38171 ft | 450 kts | 352° |
| 2026-04-30 00:13 | 46.38204 | 9.01307 | 38180 ft | 448 kts | 352° |
| 2026-04-30 00:14 | 46.44423 | 9.00468 | 38164 ft | 448 kts | 352° |
| 2026-04-30 00:14 | 46.50635 | 8.99635 | 38160 ft | 449 kts | 352° |
| 2026-04-30 00:15 | 46.56864 | 8.98800 | 38160 ft | 450 kts | 352° |
| 2026-04-30 00:15 | 46.63113 | 8.97963 | 38172 ft | 452 kts | 352° |
| 2026-04-30 00:16 | 46.69371 | 8.97112 | 38158 ft | 452 kts | 352° |
| 2026-04-30 00:16 | 46.75640 | 8.96255 | 38157 ft | 452 kts | 353° |
| 2026-04-30 00:17 | 46.81873 | 8.95414 | 38169 ft | 450 kts | 352° |
| 2026-04-30 00:17 | 46.88108 | 8.94558 | 38166 ft | 450 kts | 353° |
| 2026-04-30 00:18 | 46.94347 | 8.93700 | 38163 ft | 451 kts | 353° |
| 2026-04-30 00:18 | 47.00613 | 8.92837 | 38176 ft | 452 kts | 353° |
| 2026-04-30 00:19 | 47.06885 | 8.91970 | 38175 ft | 453 kts | 353° |
| 2026-04-30 00:19 | 47.13164 | 8.91103 | 38193 ft | 453 kts | 353° |
| 2026-04-30 00:20 | 47.19447 | 8.90234 | 38198 ft | 453 kts | 353° |
| 2026-04-30 00:20 | 47.25737 | 8.89634 | 38210 ft | 454 kts | 0° |
| 2026-04-30 00:21 | 47.32018 | 8.90783 | 38207 ft | 457 kts | 11° |
| 2026-04-30 00:21 | 47.38096 | 8.93629 | 38210 ft | 459 kts | 17° |
| 2026-04-30 00:22 | 47.44304 | 8.95550 | 38210 ft | 456 kts | 3° |
| 2026-04-30 00:22 | 47.50623 | 8.95348 | 38212 ft | 455 kts | 352° |
| 2026-04-30 00:23 | 47.55828 | 8.94243 | 38212 ft | 455 kts | 352° |
| 2026-04-30 00:23 | 47.63124 | 8.92765 | 38223 ft | 455 kts | 352° |
| 2026-04-30 00:24 | 47.68375 | 8.91684 | 38223 ft | 455 kts | 352° |
| 2026-04-30 00:24 | 47.74642 | 8.90389 | 38231 ft | 454 kts | 353° |
| 2026-04-30 00:25 | 47.80932 | 8.90064 | 38237 ft | 452 kts | 3° |
| 2026-04-30 00:25 | 47.87194 | 8.90955 | 38239 ft | 452 kts | 5° |
| 2026-04-30 00:26 | 47.93405 | 8.91846 | 38247 ft | 451 kts | 5° |
| 2026-04-30 00:26 | 47.96517 | 8.92300 | 38057 ft | 448 kts | 5° |
| 2026-04-30 00:26 | 47.99623 | 8.92760 | 37386 ft | 449 kts | 6° |
| 2026-04-30 00:26 | 48.02778 | 8.93231 | 36426 ft | 451 kts | 6° |
| 2026-04-30 00:27 | 48.05873 | 8.93694 | 35437 ft | 453 kts | 6° |
| 2026-04-30 00:27 | 48.09005 | 8.94163 | 34418 ft | 453 kts | 7° |
| 2026-04-30 00:27 | 48.12141 | 8.94630 | 33298 ft | 451 kts | 8° |
| 2026-04-30 00:27 | 48.15272 | 8.95101 | 32097 ft | 454 kts | 8° |
| 2026-04-30 00:28 | 48.18369 | 8.95568 | 31963 ft | 446 kts | 8° |
| 2026-04-30 00:28 | 48.21473 | 8.96039 | 31850 ft | 452 kts | 8° |
| 2026-04-30 00:28 | 48.24611 | 8.96517 | 31735 ft | 452 kts | 8° |
| 2026-04-30 00:28 | 48.27741 | 8.96992 | 31622 ft | 451 kts | 8° |
| 2026-04-30 00:29 | 48.30862 | 8.97464 | 31509 ft | 450 kts | 9° |
| 2026-04-30 00:29 | 48.33963 | 8.97935 | 31395 ft | 447 kts | 9° |
| 2026-04-30 00:29 | 48.37055 | 8.98405 | 31281 ft | 446 kts | 9° |
| 2026-04-30 00:29 | 48.40146 | 8.98875 | 31172 ft | 446 kts | 9° |
| 2026-04-30 00:30 | 48.43232 | 8.99344 | 31067 ft | 445 kts | 9° |
| 2026-04-30 00:30 | 48.46310 | 8.99814 | 30951 ft | 445 kts | 9° |
| 2026-04-30 00:30 | 48.49386 | 9.00283 | 30842 ft | 444 kts | 9° |
| 2026-04-30 00:30 | 48.52455 | 9.00752 | 30730 ft | 443 kts | 9° |
| 2026-04-30 00:31 | 48.55525 | 9.01222 | 30620 ft | 443 kts | 9° |
| 2026-04-30 00:31 | 48.58582 | 9.01689 | 30497 ft | 441 kts | 9° |
| 2026-04-30 00:31 | 48.61620 | 9.02155 | 30239 ft | 436 kts | 9° |
| 2026-04-30 00:31 | 48.64601 | 9.02754 | 29947 ft | 429 kts | 13° |
| 2026-04-30 00:32 | 48.67532 | 9.03470 | 29615 ft | 426 kts | 12° |
| 2026-04-30 00:32 | 48.70454 | 9.04168 | 29087 ft | 423 kts | 12° |
| 2026-04-30 00:32 | 48.73349 | 9.04855 | 28513 ft | 419 kts | 12° |
| 2026-04-30 00:32 | 48.76209 | 9.05534 | 27906 ft | 415 kts | 12° |
| 2026-04-30 00:33 | 48.79016 | 9.06203 | 27272 ft | 412 kts | 12° |
| 2026-04-30 00:33 | 48.81830 | 9.06875 | 26675 ft | 408 kts | 12° |
| 2026-04-30 00:33 | 48.84617 | 9.07543 | 26072 ft | 404 kts | 12° |
| 2026-04-30 00:33 | 48.87384 | 9.08207 | 25490 ft | 401 kts | 12° |
| 2026-04-30 00:34 | 48.90147 | 9.08700 | 24877 ft | 399 kts | 8° |
| 2026-04-30 00:34 | 48.92896 | 9.09074 | 24306 ft | 396 kts | 8° |
| 2026-04-30 00:34 | 48.95630 | 9.09461 | 23736 ft | 392 kts | 8° |
| 2026-04-30 00:34 | 48.98327 | 9.09848 | 23083 ft | 388 kts | 8° |
| 2026-04-30 00:35 | 49.01005 | 9.10233 | 22413 ft | 385 kts | 8° |
| 2026-04-30 00:35 | 49.03662 | 9.10615 | 21750 ft | 382 kts | 8° |
| 2026-04-30 00:35 | 49.06301 | 9.10992 | 21097 ft | 379 kts | 8° |
| 2026-04-30 00:35 | 49.08917 | 9.11366 | 20456 ft | 376 kts | 8° |
| 2026-04-30 00:36 | 49.11514 | 9.11737 | 19809 ft | 373 kts | 8° |
| 2026-04-30 00:36 | 49.14089 | 9.12106 | 19170 ft | 371 kts | 8° |
| 2026-04-30 00:36 | 49.16647 | 9.12473 | 18537 ft | 368 kts | 8° |
| 2026-04-30 00:36 | 49.19189 | 9.12836 | 17841 ft | 364 kts | 8° |
| 2026-04-30 00:37 | 49.21708 | 9.13007 | 17120 ft | 365 kts | 358° |
| 2026-04-30 00:37 | 49.24176 | 9.12093 | 16452 ft | 369 kts | 341° |
| 2026-04-30 00:37 | 49.26367 | 9.10042 | 15806 ft | 374 kts | 324° |
| 2026-04-30 00:37 | 49.28121 | 9.07076 | 15135 ft | 377 kts | 311° |
| 2026-04-30 00:38 | 49.29638 | 9.03802 | 14490 ft | 376 kts | 309° |
| 2026-04-30 00:38 | 49.31151 | 9.00568 | 13829 ft | 371 kts | 311° |
| 2026-04-30 00:38 | 49.32713 | 8.97459 | 13159 ft | 367 kts | 313° |
| 2026-04-30 00:38 | 49.34320 | 8.94438 | 12480 ft | 363 kts | 314° |
| 2026-04-30 00:39 | 49.35936 | 8.91499 | 11770 ft | 360 kts | 314° |
| 2026-04-30 00:39 | 49.37573 | 8.88564 | 11039 ft | 360 kts | 314° |
| 2026-04-30 00:39 | 49.39180 | 8.85685 | 10800 ft | 345 kts | 314° |
| 2026-04-30 00:39 | 49.40695 | 8.82960 | 10698 ft | 327 kts | 315° |
| 2026-04-30 00:40 | 49.42128 | 8.80385 | 10575 ft | 308 kts | 314° |
| 2026-04-30 00:40 | 49.43486 | 8.77936 | 10384 ft | 298 kts | 315° |
| 2026-04-30 00:40 | 49.44834 | 8.75512 | 9941 ft | 297 kts | 314° |
| 2026-04-30 00:40 | 49.46182 | 8.73100 | 9392 ft | 296 kts | 314° |
| 2026-04-30 00:41 | 49.47514 | 8.70705 | 8853 ft | 294 kts | 314° |
| 2026-04-30 00:41 | 49.48819 | 8.68342 | 8623 ft | 285 kts | 314° |
| 2026-04-30 00:41 | 49.50133 | 8.65966 | 8525 ft | 294 kts | 314° |
| 2026-04-30 00:41 | 49.51451 | 8.63580 | 8421 ft | 288 kts | 314° |
| 2026-04-30 00:42 | 49.52703 | 8.61299 | 8345 ft | 268 kts | 314° |
| 2026-04-30 00:42 | 49.53853 | 8.59135 | 8346 ft | 261 kts | 311° |
| 2026-04-30 00:42 | 49.54927 | 8.56862 | 8348 ft | 263 kts | 308° |
| 2026-04-30 00:42 | 49.55967 | 8.54553 | 8348 ft | 262 kts | 308° |
| 2026-04-30 00:43 | 49.57010 | 8.52243 | 8346 ft | 262 kts | 308° |
| 2026-04-30 00:43 | 49.58047 | 8.49974 | 8351 ft | 262 kts | 308° |
| 2026-04-30 00:43 | 49.59082 | 8.47726 | 8322 ft | 244 kts | 309° |
| 2026-04-30 00:43 | 49.60039 | 8.45656 | 8191 ft | 230 kts | 309° |
| 2026-04-30 00:44 | 49.60948 | 8.43697 | 8053 ft | 221 kts | 309° |
| 2026-04-30 00:44 | 49.61853 | 8.41760 | 7983 ft | 228 kts | 309° |
| 2026-04-30 00:44 | 49.62809 | 8.39721 | 7973 ft | 237 kts | 309° |
| 2026-04-30 00:44 | 49.63772 | 8.37655 | 7973 ft | 237 kts | 309° |
| 2026-04-30 00:45 | 49.64734 | 8.35582 | 7971 ft | 237 kts | 309° |
| 2026-04-30 00:45 | 49.65692 | 8.33512 | 7972 ft | 237 kts | 309° |
| 2026-04-30 00:45 | 49.66653 | 8.31437 | 7972 ft | 237 kts | 309° |
| 2026-04-30 00:45 | 49.67509 | 8.29585 | 7971 ft | 237 kts | 309° |
| 2026-04-30 00:46 | 49.68455 | 8.27540 | 7978 ft | 237 kts | 309° |
| 2026-04-30 00:46 | 49.69413 | 8.25469 | 7945 ft | 236 kts | 309° |
| 2026-04-30 00:46 | 49.70366 | 8.23404 | 7837 ft | 237 kts | 309° |
| 2026-04-30 00:46 | 49.71321 | 8.21334 | 7717 ft | 236 kts | 309° |
| 2026-04-30 00:47 | 49.72272 | 8.19273 | 7585 ft | 236 kts | 309° |
| 2026-04-30 00:47 | 49.73222 | 8.17212 | 7471 ft | 235 kts | 309° |
| 2026-04-30 00:47 | 49.74170 | 8.15152 | 7344 ft | 234 kts | 309° |
| 2026-04-30 00:47 | 49.75116 | 8.13092 | 7218 ft | 238 kts | 309° |
| 2026-04-30 00:48 | 49.76071 | 8.11017 | 7142 ft | 233 kts | 309° |
| 2026-04-30 00:48 | 49.76985 | 8.09024 | 7057 ft | 219 kts | 309° |
| 2026-04-30 00:48 | 49.77833 | 8.07168 | 6956 ft | 204 kts | 309° |
| 2026-04-30 00:48 | 49.78622 | 8.05441 | 6864 ft | 188 kts | 309° |
| 2026-04-30 00:49 | 49.79353 | 8.03842 | 6601 ft | 178 kts | 310° |
| 2026-04-30 00:49 | 49.80071 | 8.02284 | 6422 ft | 182 kts | 309° |
| 2026-04-30 00:49 | 49.80807 | 8.00692 | 6272 ft | 180 kts | 309° |
| 2026-04-30 00:49 | 49.81532 | 7.99114 | 6151 ft | 180 kts | 309° |
| 2026-04-30 00:50 | 49.82256 | 7.97532 | 6036 ft | 180 kts | 309° |
| 2026-04-30 00:50 | 49.82977 | 7.95957 | 5983 ft | 179 kts | 309° |
| 2026-04-30 00:50 | 49.83697 | 7.94381 | 5979 ft | 179 kts | 309° |
| 2026-04-30 00:50 | 49.84414 | 7.92807 | 5981 ft | 179 kts | 308° |
| 2026-04-30 00:51 | 49.85135 | 7.91226 | 5979 ft | 179 kts | 308° |
| 2026-04-30 00:51 | 49.85951 | 7.89811 | 5936 ft | 173 kts | 332° |
| 2026-04-30 00:51 | 49.87070 | 7.89358 | 6052 ft | 166 kts | 10° |
| 2026-04-30 00:51 | 49.88038 | 7.90035 | 5942 ft | 149 kts | 54° |
| 2026-04-30 00:52 | 49.88452 | 7.91485 | 6155 ft | 154 kts | 81° |
| 2026-04-30 00:52 | 49.88713 | 7.93136 | 6117 ft | 157 kts | 78° |
| 2026-04-30 00:52 | 49.89021 | 7.94711 | 6019 ft | 149 kts | 75° |
| 2026-04-30 00:52 | 49.89362 | 7.96210 | 5700 ft | 146 kts | 73° |
| 2026-04-30 00:53 | 49.89726 | 7.97674 | 5282 ft | 144 kts | 71° |
| 2026-04-30 00:53 | 49.90174 | 7.99117 | 5171 ft | 152 kts | 68° |
| 2026-04-30 00:53 | 49.90608 | 8.00590 | 4970 ft | 146 kts | 71° |
| 2026-04-30 00:53 | 49.90986 | 8.02047 | 4766 ft | 147 kts | 73° |
| 2026-04-30 00:54 | 49.91348 | 8.03539 | 4583 ft | 147 kts | 74° |
| 2026-04-30 00:54 | 49.91699 | 8.05007 | 4408 ft | 144 kts | 75° |
| 2026-04-30 00:54 | 49.92047 | 8.06469 | 4215 ft | 144 kts | 74° |
| 2026-04-30 00:54 | 49.92401 | 8.07945 | 4196 ft | 147 kts | 75° |
| 2026-04-30 00:55 | 49.92760 | 8.09451 | 4439 ft | 150 kts | 74° |
| 2026-04-30 00:55 | 49.93126 | 8.10979 | 4660 ft | 150 kts | 73° |
| 2026-04-30 00:55 | 49.93842 | 8.13964 | 4808 ft | 149 kts | 73° |
| 2026-04-30 00:56 | 49.94200 | 8.15462 | 4793 ft | 147 kts | 73° |
| 2026-04-30 00:56 | 49.94556 | 8.16947 | 4810 ft | 148 kts | 73° |
| 2026-04-30 00:56 | 49.94912 | 8.18435 | 4811 ft | 147 kts | 73° |
| 2026-04-30 00:56 | 49.95266 | 8.19920 | 4792 ft | 148 kts | 73° |
| 2026-04-30 00:57 | 49.95622 | 8.21416 | 4696 ft | 147 kts | 71° |
| 2026-04-30 00:57 | 49.95978 | 8.22896 | 4494 ft | 145 kts | 72° |
| 2026-04-30 00:57 | 49.96325 | 8.24344 | 4324 ft | 142 kts | 73° |
| 2026-04-30 00:57 | 49.96669 | 8.25786 | 4132 ft | 142 kts | 73° |
| 2026-04-30 00:58 | 49.97012 | 8.27217 | 3956 ft | 141 kts | 74° |
| 2026-04-30 00:58 | 49.97350 | 8.28636 | 3767 ft | 140 kts | 75° |
| 2026-04-30 00:58 | 49.97689 | 8.30057 | 3591 ft | 140 kts | 75° |
| 2026-04-30 00:58 | 49.98025 | 8.31454 | 3387 ft | 137 kts | 76° |
| 2026-04-30 00:59 | 49.98351 | 8.32836 | 3217 ft | 136 kts | 77° |
| 2026-04-30 00:59 | 49.98682 | 8.34217 | 3021 ft | 134 kts | 77° |
| 2026-04-30 00:59 | 49.99004 | 8.35569 | 2848 ft | 135 kts | 78° |
| 2026-04-30 00:59 | 49.99330 | 8.36948 | 2652 ft | 136 kts | 77° |
| 2026-04-30 01:00 | 49.99657 | 8.38305 | 2461 ft | 133 kts | 77° |
| 2026-04-30 01:00 | 49.99979 | 8.39658 | 2281 ft | 133 kts | 77° |
| 2026-04-30 01:00 | 50.00300 | 8.41014 | 2089 ft | 133 kts | 77° |
| 2026-04-30 01:00 | 50.00620 | 8.42354 | 1908 ft | 134 kts | 75° |
| 2026-04-30 01:01 | 50.00945 | 8.43726 | 1731 ft | 136 kts | 74° |
| 2026-04-30 01:01 | 50.01277 | 8.45107 | 1526 ft | 138 kts | 74° |
| 2026-04-30 01:01 | 50.01605 | 8.46493 | 1344 ft | 136 kts | 72° |
| 2026-04-30 01:01 | 50.01888 | 8.47680 | 1182 ft | 140 kts | 71° |
| 2026-04-30 01:02 | 50.02231 | 8.49120 | 977 ft | 142 kts | 69° |
| 2026-04-30 01:02 | 50.02579 | 8.50566 | 782 ft | 143 kts | 67° |
| 2026-04-30 01:02 | 50.02954 | 8.51988 | 495 ft | 138 kts | 40° |
| 2026-04-30 01:02 | 50.03579 | 8.52780 | 1490 ft | 212 kts | 39° |